Time;durP1;ratioP1;P1;durP2;ratioP2;P2;SDS_P1;SDS_P2;PMS_P1;PMS_P2;Temp;Humidity;BMP_temperature;BMP_pressure;BME280_temperature;BME280_humidity;BME280_pressure;Samples;Min_cycle;Max_cycle;Signal;HPM_P1;HPM_P2
2022/08/24 00:00:50;;;;;;;4.75;3.35;;;;;;;18.86;nan;101573.22;5031496;28;20033;-63
2022/08/24 00:03:15;;;;;;;3.40;3.05;;;;;;;18.64;nan;101530.88;5032571;28;20034;-64
2022/08/24 00:05:40;;;;;;;3.50;3.20;;;;;;;18.84;nan;101575.13;5032577;28;20029;-63
2022/08/24 00:08:06;;;;;;;4.22;3.42;;;;;;;18.73;nan;101550.84;5014639;28;20045;-63
2022/08/24 00:10:31;;;;;;;3.40;3.00;;;;;;;18.82;nan;101572.56;5032767;28;20049;-65
2022/08/24 00:12:57;;;;;;;3.45;2.97;;;;;;;18.80;nan;101574.44;5014379;28;20424;-64
2022/08/24 00:15:23;;;;;;;3.85;3.25;;;;;;;18.76;nan;101566.69;5015084;28;20462;-64
2022/08/24 00:17:49;;;;;;;3.97;3.05;;;;;;;18.79;nan;101564.72;5032491;28;20112;-63
2022/08/24 00:20:14;;;;;;;2.92;2.72;;;;;;;18.82;nan;101564.56;5032273;28;20133;-65
2022/08/24 00:22:40;;;;;;;3.35;2.95;;;;;;;18.74;nan;101568.59;5032367;28;20281;-65
2022/08/24 00:25:06;;;;;;;3.55;2.70;;;;;;;18.73;nan;101567.72;5032375;28;20116;-62
2022/08/24 00:27:31;;;;;;;3.47;3.17;;;;;;;18.76;nan;101572.03;5032552;28;20044;-63
2022/08/24 00:29:57;;;;;;;4.78;3.05;;;;;;;18.75;nan;101579.16;5032300;28;20033;-63
2022/08/24 00:32:22;;;;;;;4.25;3.00;;;;;;;18.50;nan;101541.44;5031055;28;20029;-63
2022/08/24 00:34:47;;;;;;;4.72;3.30;;;;;;;18.44;nan;101523.09;5032271;28;20049;-65
2022/08/24 00:37:13;;;;;;;3.10;2.80;;;;;;;18.70;nan;101572.34;5014688;28;20461;-63
2022/08/24 00:39:38;;;;;;;2.75;2.55;;;;;;;18.37;nan;101524.34;5032145;28;20103;-65
2022/08/24 00:42:04;;;;;;;3.78;3.38;;;;;;;18.61;nan;101568.38;5032313;28;20112;-64
2022/08/24 00:44:29;;;;;;;5.68;3.20;;;;;;;18.60;nan;101571.97;5014432;28;20041;-65
2022/08/24 00:47:01;;;;;;;5.28;3.58;;;;;;;18.58;nan;101573.88;5031806;28;20029;-62
2022/08/24 00:49:40;;;;;;;3.65;3.35;;;;;;;18.49;nan;101556.56;5014150;28;20555;-64
2022/08/24 00:52:14;;;;;;;4.18;3.78;;;;;;;18.58;nan;101576.53;5013623;28;20504;-64
2022/08/24 00:54:46;;;;;;;6.53;5.13;;;;;;;18.58;nan;101573.88;5035985;28;20037;-63
2022/08/24 00:57:13;;;;;;;5.90;5.15;;;;;;;18.37;nan;101527.00;5036077;28;20037;-64
2022/08/24 00:59:43;;;;;;;6.78;5.10;;;;;;;18.62;nan;101570.13;5034944;28;20029;-66
2022/08/24 01:02:16;;;;;;;6.07;5.47;;;;;;;18.60;nan;101566.66;5035972;28;20033;-64
2022/08/24 01:04:50;;;;;;;6.43;5.70;;;;;;;18.31;nan;101528.19;5036044;28;20120;-65
2022/08/24 01:07:16;;;;;;;6.07;5.35;;;;;;;18.56;nan;101558.91;5035619;28;20104;-63
2022/08/24 01:09:41;;;;;;;7.53;5.68;;;;;;;18.49;nan;101559.25;5035918;28;20492;-66
2022/08/24 01:12:08;;;;;;;6.93;6.22;;;;;;;18.48;nan;101562.84;5018105;28;20060;-66
2022/08/24 01:14:35;;;;;;;12.30;7.78;;;;;;;18.44;nan;101561.28;5018426;28;20052;-64
2022/08/24 01:19:51;;;;;;;11.90;8.55;;;;;;;18.31;nan;101535.34;5002654;28;20049;-63
2022/08/24 01:22:38;;;;;;;10.10;8.13;;;;;;;18.43;nan;101574.66;5018133;28;20030;-66
2022/08/24 01:25:04;;;;;;;10.10;9.18;;;;;;;18.42;nan;101564.94;5035558;28;20061;-64
2022/08/24 01:27:30;;;;;;;12.25;10.48;;;;;;;18.39;nan;101562.44;5017645;28;20459;-64
2022/08/24 01:29:57;;;;;;;12.77;10.38;;;;;;;18.31;nan;101546.00;5035492;28;20033;-62
2022/08/24 01:32:26;;;;;;;11.55;10.38;;;;;;;18.36;nan;101566.13;5017866;28;20040;-65
2022/08/24 01:34:52;;;;;;;12.23;11.02;;;;;;;18.31;nan;101559.31;5017871;28;20171;-65
2022/08/24 01:37:17;;;;;;;13.20;11.90;;;;;;;18.37;nan;101574.97;5017774;28;20404;-63
2022/08/24 01:39:45;;;;;;;14.30;11.80;;;;;;;18.09;nan;101532.09;5017534;28;20435;-64
2022/08/24 01:42:12;;;;;;;13.15;11.75;;;;;;;18.03;nan;101524.41;5035930;28;20033;-64
2022/08/24 01:44:39;;;;;;;13.90;12.43;;;;;;;18.25;nan;101576.50;5001729;28;20052;-66
2022/08/24 01:47:06;;;;;;;14.55;11.77;;;;;;;18.27;nan;101574.59;5017666;28;20042;-65
2022/08/24 01:49:35;;;;;;;13.27;11.35;;;;;;;18.07;nan;101547.31;5035430;28;20030;-66
2022/08/24 01:52:01;;;;;;;13.13;11.82;;;;;;;18.26;nan;101588.03;5034910;28;20432;-64
2022/08/24 01:54:27;;;;;;;13.45;12.07;;;;;;;18.26;nan;101582.69;5035384;28;20033;-65
2022/08/24 01:56:53;;;;;;;13.15;11.75;;;;;;;18.25;nan;101589.81;5017503;28;20040;-63
2022/08/24 01:59:19;;;;;;;14.63;11.88;;;;;;;18.05;nan;101558.03;5001114;28;20045;-63
2022/08/24 02:01:50;;;;;;;14.73;11.80;;;;;;;18.20;nan;101591.88;5034243;28;20041;-64
2022/08/24 02:04:15;;;;;;;12.85;11.50;;;;;;;18.18;nan;101585.78;5034942;28;20469;-64
2022/08/24 02:06:43;;;;;;;13.73;11.98;;;;;;;17.88;nan;101547.38;5034704;28;20068;-66
2022/08/24 02:09:09;;;;;;;10.85;9.63;;;;;;;18.14;nan;101592.19;5017201;28;20095;-64
2022/08/24 02:11:36;;;;;;;11.95;10.57;;;;;;;17.85;nan;101531.56;5034444;28;20497;-64
2022/08/24 02:14:02;;;;;;;11.82;10.63;;;;;;;17.90;nan;101549.03;5017107;28;20033;-66
2022/08/24 02:16:27;;;;;;;12.63;10.10;;;;;;;18.09;nan;101575.59;5033589;28;20537;-64
2022/08/24 02:18:52;;;;;;;11.90;10.70;;;;;;;17.83;nan;101533.44;5000710;28;20142;-64
2022/08/24 02:21:18;;;;;;;14.80;11.10;;;;;;;18.10;nan;101584.41;4999730;28;20037;-65
2022/08/24 02:23:43;;;;;;;12.48;10.68;;;;;;;17.74;nan;101521.47;5034538;28;20029;-64
2022/08/24 02:26:10;;;;;;;12.20;10.48;;;;;;;18.07;nan;101580.09;5016994;28;20080;-64
2022/08/24 02:28:35;;;;;;;12.77;10.20;;;;;;;18.04;nan;101579.44;5034600;28;20034;-63
2022/08/24 02:31:04;;;;;;;11.13;9.98;;;;;;;17.83;nan;101554.75;5016512;28;20040;-64
2022/08/24 02:33:30;;;;;;;11.23;10.07;;;;;;;17.77;nan;101544.41;5017067;28;20116;-64
2022/08/24 02:35:55;;;;;;;12.30;9.90;;;;;;;17.72;nan;101530.44;5016374;28;20061;-64
2022/08/24 02:38:21;;;;;;;15.45;11.07;;;;;;;17.91;nan;101572.06;5034374;28;20124;-64
2022/08/24 02:40:46;;;;;;;12.10;10.68;;;;;;;17.86;nan;101563.44;5034041;28;20050;-67
2022/08/24 02:43:12;;;;;;;11.32;10.20;;;;;;;17.95;nan;101589.59;5016288;28;20467;-62
2022/08/24 02:45:39;;;;;;;13.32;10.18;;;;;;;17.95;nan;101592.25;5033434;28;20030;-64
2022/08/24 02:48:04;;;;;;;11.07;9.98;;;;;;;17.69;nan;101542.13;5016259;28;20056;-66
2022/08/24 02:50:30;;;;;;;11.88;10.65;;;;;;;17.62;nan;101534.53;5016090;28;20037;-63
2022/08/24 02:52:55;;;;;;;12.85;11.30;;;;;;;17.62;nan;101538.06;5016345;28;20046;-64
2022/08/24 02:55:20;;;;;;;12.40;9.90;;;;;;;17.71;nan;101548.25;4999977;28;20119;-64
2022/08/24 02:57:47;;;;;;;13.25;10.48;;;;;;;17.64;nan;101544.16;5033736;28;20033;-65
2022/08/24 03:00:15;;;;;;;13.52;10.40;;;;;;;17.74;nan;101560.53;5016277;28;20396;-64
2022/08/24 03:02:40;;;;;;;10.52;9.43;;;;;;;17.85;nan;101588.34;5015686;28;20428;-63
2022/08/24 03:05:07;;;;;;;12.20;10.57;;;;;;;17.64;nan;101560.13;5033577;28;20037;-64
2022/08/24 03:07:32;;;;;;;12.93;9.48;;;;;;;17.83;nan;101587.53;5033593;28;20041;-65
2022/08/24 03:09:57;;;;;;;13.30;9.57;;;;;;;17.81;nan;101588.56;5015363;28;20041;-66
2022/08/24 03:12:23;;;;;;;10.55;9.25;;;;;;;17.52;nan;101547.41;5033229;28;20523;-65
2022/08/24 03:14:48;;;;;;;9.70;8.18;;;;;;;17.69;nan;101582.06;5033305;28;20072;-64
2022/08/24 03:17:14;;;;;;;10.50;9.07;;;;;;;17.65;nan;101574.31;5015306;28;20037;-66
2022/08/24 03:19:39;;;;;;;10.00;9.00;;;;;;;17.45;nan;101536.19;5015731;28;20038;-63
2022/08/24 03:22:05;;;;;;;10.57;8.90;;;;;;;17.52;nan;101546.53;5033562;28;20033;-64
2022/08/24 03:24:30;;;;;;;10.80;8.98;;;;;;;17.74;nan;101593.38;5033406;28;20037;-65
2022/08/24 03:26:55;;;;;;;10.15;9.10;;;;;;;17.65;nan;101579.63;5015634;28;20038;-66
2022/08/24 03:29:21;;;;;;;10.00;8.90;;;;;;;17.69;nan;101576.72;4999370;28;20400;-65
2022/08/24 03:31:47;;;;;;;9.25;8.05;;;;;;;17.33;nan;101512.00;5033445;28;20077;-65
2022/08/24 03:34:13;;;;;;;9.15;7.50;;;;;;;17.80;nan;101593.06;5032627;28;20384;-68
2022/08/24 03:36:39;;;;;;;8.20;7.05;;;;;;;17.83;nan;101600.88;5031909;28;20037;-64
2022/08/24 03:39:05;;;;;;;8.57;7.68;;;;;;;17.73;nan;101573.00;5033127;28;20037;-63
2022/08/24 03:41:31;;;;;;;8.45;6.88;;;;;;;17.90;nan;101591.63;5033136;28;20045;-63
2022/08/24 03:43:56;;;;;;;7.72;6.97;;;;;;;17.86;nan;101581.22;5015168;28;20092;-65
2022/08/24 03:46:28;;;;;;;8.18;7.18;;;;;;;17.68;nan;101537.75;5015343;28;20120;-65
2022/08/24 03:48:55;;;;;;;7.78;6.90;;;;;;;17.96;nan;101571.81;5015324;28;20033;-65
2022/08/24 03:51:23;;;;;;;8.45;7.15;;;;;;;18.02;nan;101581.28;5033444;28;20041;-65
2022/08/24 03:53:50;;;;;;;6.88;6.18;;;;;;;18.08;nan;101586.31;5015232;28;20029;-67
2022/08/24 03:56:17;;;;;;;7.65;6.40;;;;;;;18.02;nan;101571.50;5015145;28;20029;-67
2022/08/24 03:58:42;;;;;;;7.55;5.97;;;;;;;18.02;nan;101571.50;5015174;28;20544;-66
2022/08/24 04:01:08;;;;;;;8.32;5.70;;;;;;;18.10;nan;101576.41;5032641;28;20132;-65
2022/08/24 04:03:36;;;;;;;5.40;4.90;;;;;;;18.08;nan;101588.97;5032782;28;20037;-65
2022/08/24 04:06:02;;;;;;;6.05;5.45;;;;;;;18.05;nan;101586.47;5015098;28;20403;-66
2022/08/24 04:08:27;;;;;;;6.45;5.85;;;;;;;17.80;nan;101541.59;5015092;28;20033;-64
2022/08/24 04:10:53;;;;;;;6.47;5.88;;;;;;;18.01;nan;101592.91;5032158;28;20033;-64
2022/08/24 04:13:18;;;;;;;5.75;5.20;;;;;;;17.95;nan;101597.59;5032460;28;20029;-65
2022/08/24 04:15:44;;;;;;;8.73;6.05;;;;;;;17.95;nan;101602.91;5014731;28;20293;-64
2022/08/24 04:18:10;;;;;;;8.15;6.03;;;;;;;17.93;nan;101595.94;5032041;28;20037;-65
2022/08/24 04:20:39;;;;;;;8.75;6.05;;;;;;;17.63;nan;101537.09;5031409;28;20236;-65
2022/08/24 04:23:06;;;;;;;6.97;6.38;;;;;;;17.45;nan;101511.41;5016006;28;20306;-68
2022/08/24 04:25:46;;;;;;;7.57;6.22;;;;;;;17.64;nan;101533.50;5015107;28;20124;-67
2022/08/24 04:28:14;;;;;;;8.57;7.78;;;;;;;17.92;nan;101576.44;5013957;28;20484;-65
2022/08/24 04:30:44;;;;;;;9.85;7.10;;;;;;;17.74;nan;101540.13;5033208;28;20040;-64
2022/08/24 04:33:10;;;;;;;8.60;7.57;;;;;;;17.98;nan;101578.78;5015049;28;20056;-65
2022/08/24 04:35:39;;;;;;;7.70;7.00;;;;;;;18.08;nan;101600.50;5032045;28;20030;-65
2022/08/24 04:38:05;;;;;;;9.63;6.85;;;;;;;18.05;nan;101598.00;5032280;28;20033;-65
2022/08/24 04:40:31;;;;;;;8.50;7.55;;;;;;;18.03;nan;101591.88;5032407;28;20048;-62
2022/08/24 04:42:57;;;;;;;7.97;7.18;;;;;;;18.08;nan;101603.16;5049912;28;20037;-65
2022/08/24 04:45:23;;;;;;;8.82;6.68;;;;;;;18.14;nan;101615.31;5034645;28;20112;-65
2022/08/24 04:47:49;;;;;;;7.00;6.40;;;;;;;18.16;nan;101606.28;5052136;28;20040;-65
2022/08/24 04:50:14;;;;;;;7.18;6.28;;;;;;;18.16;nan;101610.75;5034162;28;20499;-66
2022/08/24 04:52:40;;;;;;;7.00;6.22;;;;;;;18.09;nan;101598.69;5052324;28;20033;-65
2022/08/24 04:55:06;;;;;;;7.10;6.40;;;;;;;17.73;nan;101557.00;5033012;28;20048;-68
2022/08/24 04:57:33;;;;;;;6.53;5.93;;;;;;;18.19;nan;101608.78;5032854;28;20037;-65
2022/08/24 04:59:58;;;;;;;6.80;6.07;;;;;;;17.98;nan;101576.13;5014598;28;20030;-65
2022/08/24 05:02:24;;;;;;;7.18;5.82;;;;;;;18.19;nan;101602.59;5046204;28;20494;-67
2022/08/24 05:04:50;;;;;;;6.90;5.90;;;;;;;18.28;nan;101610.13;5033302;28;20041;-66
2022/08/24 05:07:17;;;;;;;6.00;5.40;;;;;;;18.34;nan;101625.78;5051836;28;20048;-66
2022/08/24 05:09:43;;;;;;;6.40;5.72;;;;;;;18.38;nan;101625.56;5033816;28;20037;-65
2022/08/24 05:12:09;;;;;;;8.15;5.90;;;;;;;18.42;nan;101611.13;5051543;28;20399;-66
2022/08/24 05:14:34;;;;;;;5.78;5.20;;;;;;;18.56;nan;101609.56;5034302;28;20108;-65
2022/08/24 05:17:00;;;;;;;8.38;6.10;;;;;;;18.33;nan;101562.78;5034005;28;20079;-66
2022/08/24 05:19:25;;;;;;;7.43;5.57;;;;;;;18.73;nan;101617.53;5051753;28;20037;-65
2022/08/24 05:21:51;;;;;;;7.32;4.95;;;;;;;18.36;nan;101551.94;5051631;28;20037;-66
2022/08/24 05:24:17;;;;;;;4.65;4.25;;;;;;;18.51;nan;101561.81;5051235;28;20036;-65
2022/08/24 05:26:42;;;;;;;4.93;4.43;;;;;;;18.88;nan;101614.91;5051562;28;20172;-65
2022/08/24 05:29:07;;;;;;;4.85;4.18;;;;;;;18.94;nan;101614.53;5051749;28;20460;-65
2022/08/24 05:31:33;;;;;;;7.75;5.45;;;;;;;19.03;nan;101619.38;5033466;28;20106;-65
2022/08/24 05:34:00;;;;;;;7.93;4.60;;;;;;;18.91;nan;101584.53;5033790;28;20033;-67
2022/08/24 05:36:31;;;;;;;8.32;5.30;;;;;;;18.80;nan;101558.41;5051695;28;20089;-65
2022/08/24 05:39:00;;;;;;;5.68;5.18;;;;;;;19.22;nan;101610.34;5052530;28;20029;-65
2022/08/24 05:41:27;;;;;;;4.45;3.83;;;;;;;19.33;nan;101619.47;5055244;28;20043;-66
2022/08/24 05:43:53;;;;;;;8.10;5.03;;;;;;;19.34;nan;101612.34;5037136;28;20178;-66
2022/08/24 05:46:18;;;;;;;5.63;4.72;;;;;;;19.23;nan;101572.06;5055205;28;20029;-66
2022/08/24 05:48:44;;;;;;;5.47;4.68;;;;;;;19.32;nan;101572.38;5037411;28;20087;-66
2022/08/24 05:51:10;;;;;;;5.90;4.05;;;;;;;19.28;nan;101553.97;5037439;28;20033;-68
2022/08/24 05:53:37;;;;;;;6.57;4.72;;;;;;;19.63;nan;101608.91;5021005;28;20060;-66
2022/08/24 05:56:07;;;;;;;4.70;4.25;;;;;;;19.73;nan;101610.06;5055160;28;20512;-68
2022/08/24 05:58:33;;;;;;;5.45;4.75;;;;;;;19.61;nan;101576.09;5037307;28;20453;-64
2022/08/24 06:00:58;;;;;;;4.78;4.32;;;;;;;19.72;nan;101583.47;5053690;28;20033;-66
2022/08/24 06:03:25;;;;;;;7.63;4.45;;;;;;;19.96;nan;101627.44;5036909;28;20037;-68
2022/08/24 06:05:51;;;;;;;7.95;4.55;;;;;;;19.99;nan;101632.63;5054763;28;20036;-66
2022/08/24 06:08:17;;;;;;;5.40;4.10;;;;;;;19.65;nan;101575.81;5036647;28;20029;-68
2022/08/24 06:10:49;;;;;;;6.28;4.30;;;;;;;20.00;nan;101626.28;5054614;28;20547;-65
2022/08/24 06:13:15;;;;;;;6.40;4.22;;;;;;;19.73;nan;101569.16;5054674;28;20048;-68
2022/08/24 06:15:41;;;;;;;8.80;4.85;;;;;;;19.87;nan;101577.22;5054734;28;20033;-65
2022/08/24 06:18:07;;;;;;;5.47;4.97;;;;;;;20.11;nan;101606.00;5036171;28;20090;-68
2022/08/24 06:20:38;;;;;;;6.22;4.50;;;;;;;20.25;nan;101623.03;5036608;28;20032;-66
2022/08/24 06:23:04;;;;;;;6.88;5.03;;;;;;;20.35;nan;101627.75;5036697;28;20028;-66
2022/08/24 06:28:14;;;;;;;5.70;3.72;;;;;;;20.43;nan;101608.59;5054554;28;20488;-67
2022/08/24 06:30:40;;;;;;;4.53;4.13;;;;;;;20.31;nan;101572.78;5036770;28;20033;-64
2022/08/24 06:33:05;;;;;;;4.93;3.90;;;;;;;20.71;nan;101633.53;5054185;28;20041;-65
2022/08/24 06:35:31;;;;;;;6.40;3.75;;;;;;;20.84;nan;101630.13;5054357;28;20040;-68
2022/08/24 06:37:56;;;;;;;5.72;3.95;;;;;;;20.86;nan;101620.16;5036470;28;20443;-67
2022/08/24 06:40:23;;;;;;;6.93;3.60;;;;;;;21.02;nan;101629.78;5019717;28;20029;-65
2022/08/24 06:42:49;;;;;;;5.70;3.60;;;;;;;21.16;nan;101639.69;5053904;28;20037;-65
2022/08/24 06:45:14;;;;;;;5.28;3.63;;;;;;;21.00;nan;101588.03;5053643;28;20087;-66
2022/08/24 06:47:40;;;;;;;4.93;3.80;;;;;;;21.34;nan;101632.28;5035945;28;20056;-68
2022/08/24 06:50:06;;;;;;;5.15;3.13;;;;;;;21.23;nan;101598.16;5053469;28;20090;-66
2022/08/24 06:52:31;;;;;;;4.88;3.20;;;;;;;21.66;nan;101645.28;5053451;28;20047;-66
2022/08/24 06:54:57;;;;;;;4.20;3.05;;;;;;;21.73;nan;101640.38;5054121;28;20048;-65
2022/08/24 06:57:22;;;;;;;5.63;3.30;;;;;;;21.94;nan;101651.53;5036030;28;20078;-66
2022/08/24 06:59:48;;;;;;;4.35;3.13;;;;;;;21.99;nan;101625.28;5053867;28;20028;-66
2022/08/24 07:02:15;;;;;;;5.13;3.67;;;;;;;22.09;nan;101635.28;5035876;28;20033;-65
2022/08/24 07:04:41;;;;;;;3.40;2.85;;;;;;;22.31;nan;101656.97;5053465;28;20510;-66
2022/08/24 07:07:06;;;;;;;4.13;3.80;;;;;;;22.47;nan;101656.81;5035769;28;20029;-70
2022/08/24 07:09:32;;;;;;;6.20;4.38;;;;;;;22.62;nan;101661.09;5053651;28;20124;-66
2022/08/24 07:11:57;;;;;;;4.93;4.53;;;;;;;22.53;nan;101626.88;5053569;28;20080;-67
2022/08/24 07:14:22;;;;;;;5.93;4.60;;;;;;;22.83;nan;101665.00;5053589;28;20502;-66
2022/08/24 07:16:48;;;;;;;7.70;3.75;;;;;;;22.84;nan;101650.59;5053047;28;20025;-65
2022/08/24 07:19:13;;;;;;;5.40;4.03;;;;;;;23.07;nan;101681.19;5053153;28;20029;-66
2022/08/24 07:21:39;;;;;;;4.88;3.90;;;;;;;22.88;nan;101629.78;5053455;28;20099;-65
2022/08/24 07:24:06;;;;;;;4.45;3.92;;;;;;;23.25;nan;101673.66;5018743;28;20438;-67
2022/08/24 07:26:31;;;;;;;4.18;3.78;;;;;;;23.43;nan;101680.41;5035800;28;20033;-65
2022/08/24 07:29:04;;;;;;;4.95;4.00;;;;;;;23.25;nan;101636.91;5035538;28;20033;-68
2022/08/24 07:31:30;;;;;;;4.25;3.85;;;;;;;23.36;nan;101646.84;5035288;28;20029;-67
2022/08/24 07:33:55;;;;;;;3.70;3.30;;;;;;;23.54;nan;101667.03;5053032;28;20037;-66
2022/08/24 07:36:21;;;;;;;8.02;3.10;;;;;;;23.86;nan;101694.22;5053583;28;20388;-68
2022/08/24 07:38:46;;;;;;;2.85;2.60;;;;;;;23.85;nan;101639.59;5052972;28;20087;-64
2022/08/24 07:41:13;;;;;;;4.57;2.70;;;;;;;24.53;nan;101709.72;5053029;28;20037;-66
2022/08/24 07:43:39;;;;;;;3.92;2.60;;;;;;;24.98;nan;101708.00;5052832;28;20095;-66
2022/08/24 07:46:06;;;;;;;3.40;2.28;;;;;;;25.50;nan;101717.31;5035248;28;20037;-67
2022/08/24 07:48:31;;;;;;;3.78;2.10;;;;;;;26.03;nan;101726.41;5035227;28;20043;-66
2022/08/24 07:50:58;;;;;;;2.17;1.73;;;;;;;26.38;nan;101731.56;5035155;28;20033;-65
2022/08/24 07:53:24;;;;;;;3.85;2.47;;;;;;;26.97;nan;101751.63;5053204;28;20059;-66
2022/08/24 07:55:55;;;;;;;3.35;2.50;;;;;;;27.10;nan;101698.25;5034562;28;20539;-67
2022/08/24 07:58:21;;;;;;;3.58;2.25;;;;;;;27.96;nan;101746.38;5052605;28;20435;-67
2022/08/24 08:00:48;;;;;;;1.58;1.48;;;;;;;28.52;nan;101772.81;5034442;28;20041;-67
2022/08/24 08:03:13;;;;;;;2.80;2.22;;;;;;;28.75;nan;101766.97;5052496;28;20025;-67
2022/08/24 08:05:39;;;;;;;3.95;2.20;;;;;;;29.21;nan;101770.72;5035211;28;20439;-67
2022/08/24 08:08:05;;;;;;;2.97;2.50;;;;;;;29.44;nan;101750.41;5052415;28;20037;-68
2022/08/24 08:10:34;;;;;;;4.80;2.50;;;;;;;29.73;nan;101772.81;5052502;28;20495;-68
2022/08/24 08:13:00;;;;;;;6.47;2.42;;;;;;;29.88;nan;101751.47;5035083;28;20060;-66
2022/08/24 08:15:25;;;;;;;3.25;1.77;;;;;;;30.28;nan;101756.47;5018041;28;20099;-66
2022/08/24 08:17:50;;;;;;;3.80;2.63;;;;;;;30.66;nan;101792.38;5052335;28;20120;-67
2022/08/24 08:20:16;;;;;;;4.22;2.53;;;;;;;30.67;nan;101804.97;5052115;28;20033;-69
2022/08/24 08:25:25;;;;;;;3.38;2.30;;;;;;;30.73;nan;101770.84;5052161;28;20056;-70
2022/08/24 08:27:50;;;;;;;2.92;1.80;;;;;;;31.09;nan;101785.22;5034383;28;20037;-69
2022/08/24 08:30:16;;;;;;;5.20;3.17;;;;;;;31.46;nan;101814.91;5034201;28;20082;-66
2022/08/24 08:32:42;;;;;;;3.78;1.30;;;;;;;31.62;nan;101815.84;5033413;28;20415;-68
2022/08/24 08:35:07;;;;;;;2.60;1.10;;;;;;;31.54;nan;101793.19;5050583;28;20077;-68
2022/08/24 08:37:33;;;;;;;1.17;0.73;;;;;;;31.59;nan;101796.28;5033104;28;20116;-67
2022/08/24 08:39:58;;;;;;;1.80;0.80;;;;;;;31.52;nan;101779.75;5050526;28;20468;-67
2022/08/24 08:42:54;;;;;;;2.38;1.02;;;;;;;31.93;nan;101821.63;5049810;28;20044;-66
2022/08/24 08:45:25;;;;;;;0.93;0.80;;;;;;;32.39;nan;101822.09;5050566;28;20116;-65
2022/08/24 08:47:56;;;;;;;;;;;;;;;32.74;nan;101819.13;5032913;28;20369;-68
2022/08/24 08:50:43;;;;;;;3.28;1.60;;;;;;;32.53;nan;101780.56;5050550;28;20349;-69
2022/08/24 08:53:12;;;;;;;7.63;2.35;;;;;;;32.74;nan;101827.28;5050644;28;20032;-68
2022/08/24 08:55:43;;;;;;;2.70;1.60;;;;;;;32.60;nan;101795.25;5049889;28;20450;-67
2022/08/24 08:58:13;;;;;;;2.92;1.60;;;;;;;32.79;nan;101833.94;5050566;28;20056;-67
2022/08/24 09:00:48;;;;;;;3.70;1.50;;;;;;;32.94;nan;101827.78;5032398;28;20610;-67
2022/08/24 09:03:22;;;;;;;4.22;1.70;;;;;;;33.14;nan;101829.19;5032702;28;20079;-68
2022/08/24 09:06:12;;;;;;;4.47;1.30;;;;;;;33.11;nan;101827.66;5050815;28;20041;-67
2022/08/24 09:08:43;;;;;;;1.90;1.00;;;;;;;33.25;nan;101839.72;5050261;28;20480;-67
2022/08/24 09:11:42;;;;;;;1.35;0.73;;;;;;;33.27;nan;101835.81;5050151;28;20063;-69
2022/08/24 09:14:12;;;;;;;2.40;1.00;;;;;;;33.42;nan;101835.09;5051338;28;20036;-67
2022/08/24 09:16:49;;;;;;;4.68;1.80;;;;;;;33.83;nan;101842.19;5035432;28;20033;-68
2022/08/24 09:19:24;;;;;;;2.25;0.90;;;;;;;34.10;nan;101849.06;5054220;28;20037;-67
2022/08/24 09:22:10;;;;;;;3.08;1.02;;;;;;;34.09;nan;101850.13;5036256;28;20099;-66
2022/08/24 09:24:50;;;;;;;0.75;0.60;;;;;;;34.04;nan;101844.28;5053976;28;20029;-63
2022/08/24 09:27:18;;;;;;;;;;;;;;;34.14;nan;101847.69;5054088;28;20025;-63
2022/08/24 09:30:10;;;;;;;1.48;0.50;;;;;;;34.31;nan;101847.41;5054111;28;20376;-66
2022/08/24 09:33:08;;;;;;;1.58;0.77;;;;;;;34.37;nan;101849.44;5035715;28;20426;-65
2022/08/24 09:35:50;;;;;;;0.63;0.60;;;;;;;34.60;nan;101838.53;5054011;28;20119;-65
2022/08/24 09:38:22;;;;;;;1.63;0.65;;;;;;;34.90;nan;101850.44;5053244;28;20395;-64
2022/08/24 09:41:18;;;;;;;1.00;0.70;;;;;;;35.01;nan;101847.25;5033951;28;20072;-66
2022/08/24 09:44:02;;;;;;;2.47;0.70;;;;;;;35.03;nan;101850.66;5053373;28;20048;-67
2022/08/24 09:46:32;;;;;;;1.98;0.68;;;;;;;35.15;nan;101819.09;5052783;28;20063;-64
2022/08/24 09:49:16;;;;;;;0.80;0.73;;;;;;;35.21;nan;101836.66;5035012;28;20476;-62
2022/08/24 09:51:56;;;;;;;3.13;0.77;;;;;;;35.23;nan;101842.81;5053457;28;20033;-63
2022/08/24 09:54:24;;;;;;;;;;;;;;;35.38;nan;101847.25;5054390;28;20036;-63
2022/08/24 09:56:55;;;;;;;3.33;0.70;;;;;;;35.62;nan;101846.19;5053626;28;19912;-66
2022/08/24 09:59:41;;;;;;;1.17;0.68;;;;;;;35.75;nan;101848.25;5035137;28;20032;-65
2022/08/24 10:02:31;;;;;;;2.58;0.70;;;;;;;35.76;nan;101842.59;5035613;28;20711;-63
2022/08/24 10:05:28;;;;;;;1.17;0.68;;;;;;;35.87;nan;101846.75;5035489;28;20530;-68
2022/08/24 10:08:15;;;;;;;3.50;0.70;;;;;;;35.58;nan;101842.97;5051567;28;20037;-63
2022/08/24 10:10:49;;;;;;;2.20;0.63;;;;;;;36.00;nan;101847.75;5052779;28;20025;-63
2022/08/24 10:13:35;;;;;;;2.45;0.60;;;;;;;36.20;nan;101838.94;5053022;28;20056;-62
2022/08/24 10:16:16;;;;;;;2.47;0.77;;;;;;;36.41;nan;101852.69;5053235;28;20029;-65
2022/08/24 10:19:19;;;;;;;1.73;0.80;;;;;;;36.14;nan;101845.22;5035311;28;20110;-64
2022/08/24 10:21:57;;;;;;;1.85;0.88;;;;;;;35.91;nan;101834.34;5052824;28;20036;-65
2022/08/24 10:24:52;;;;;;;1.20;0.95;;;;;;;35.32;nan;101809.69;5035259;28;20064;-66
2022/08/24 10:27:37;;;;;;;7.28;1.50;;;;;;;34.01;nan;101828.25;5009038;28;20095;-64
2022/08/24 10:30:41;;;;;;;1.63;0.90;;;;;;;32.99;nan;101814.50;5050822;28;20049;-64
2022/08/24 10:33:18;;;;;;;1.30;1.20;;;;;;;32.39;nan;101814.78;5052929;28;20037;-68
2022/08/24 10:36:20;;;;;;;2.95;1.20;;;;;;;32.02;nan;101782.50;5034892;28;20021;-66
2022/08/24 10:41:56;;;;;;;2.08;0.93;;;;;;;33.09;nan;101817.94;5052680;28;20063;-62
2022/08/24 10:44:33;;;;;;;1.17;0.88;;;;;;;33.19;nan;101826.78;5034699;28;20086;-65
2022/08/24 10:47:19;;;;;;;1.77;1.10;;;;;;;32.84;nan;101809.72;5034562;28;20047;-65
2022/08/24 10:49:57;;;;;;;5.22;1.48;;;;;;;32.39;nan;101819.38;5051567;28;20048;-64
2022/08/24 10:52:45;;;;;;;1.05;0.80;;;;;;;31.76;nan;101777.13;5034708;28;20032;-66
2022/08/24 10:55:31;;;;;;;2.20;1.10;;;;;;;31.55;nan;101814.78;5052177;28;20040;-64
2022/08/24 10:58:08;;;;;;;1.30;1.20;;;;;;;31.06;nan;101799.16;5052170;28;20036;-62
2022/08/24 11:00:34;;;;;;;3.30;1.30;;;;;;;30.73;nan;101799.91;5052412;28;20025;-66
2022/08/24 11:03:05;;;;;;;1.27;1.17;;;;;;;30.60;nan;101795.72;5051687;28;20124;-65
2022/08/24 11:05:39;;;;;;;1.38;1.13;;;;;;;30.27;nan;101724.91;5052098;28;20029;-66
2022/08/24 11:08:05;;;;;;;1.50;1.20;;;;;;;31.12;nan;101774.03;5034117;28;20060;-68
2022/08/24 11:10:34;;;;;;;2.45;1.15;;;;;;;31.61;nan;101762.44;5034131;28;20116;-64
2022/08/24 11:13:23;;;;;;;2.42;1.10;;;;;;;32.01;nan;101797.13;5033977;28;20481;-65
2022/08/24 11:15:58;;;;;;;1.67;1.25;;;;;;;32.07;nan;101796.50;5051900;28;20123;-66
2022/08/24 11:18:24;;;;;;;3.17;1.13;;;;;;;32.97;nan;101794.72;5034190;28;20082;-66
2022/08/24 11:20:52;;;;;;;1.98;1.20;;;;;;;34.07;nan;101808.41;5032773;28;20028;-66
2022/08/24 11:23:27;;;;;;;1.80;1.25;;;;;;;35.21;nan;101814.78;5033848;28;20128;-65
2022/08/24 11:25:55;;;;;;;1.20;1.10;;;;;;;36.33;nan;101823.53;5033499;28;20032;-64
2022/08/24 11:28:36;;;;;;;1.77;1.00;;;;;;;36.40;nan;101824.41;5051746;28;20056;-68
2022/08/24 11:31:02;;;;;;;1.60;1.00;;;;;;;35.36;nan;101819.22;5051644;28;20033;-65
2022/08/24 11:33:34;;;;;;;2.25;1.00;;;;;;;34.16;nan;101778.16;5051473;28;20089;-64
2022/08/24 11:36:00;;;;;;;1.60;1.00;;;;;;;33.57;nan;101822.44;5051448;28;20377;-65
2022/08/24 11:38:33;;;;;;;1.60;1.00;;;;;;;32.39;nan;101784.81;5051317;28;20424;-63
2022/08/24 11:41:19;;;;;;;1.35;1.00;;;;;;;32.19;nan;101811.53;5051341;28;20037;-66
2022/08/24 11:44:06;;;;;;;3.45;0.88;;;;;;;33.40;nan;101778.81;5033384;28;20119;-63
2022/08/24 11:46:45;;;;;;;2.92;0.63;;;;;;;35.36;nan;101816.50;5051103;28;20109;-65
2022/08/24 11:49:25;;;;;;;1.52;1.00;;;;;;;35.35;nan;101817.53;5033134;28;20036;-62
2022/08/24 11:52:16;;;;;;;2.22;0.80;;;;;;;35.24;nan;101815.25;5051244;28;20021;-64
2022/08/24 11:54:55;;;;;;;1.30;0.95;;;;;;;36.24;nan;101821.94;5049348;28;20040;-63
2022/08/24 11:57:29;;;;;;;1.45;0.88;;;;;;;35.81;nan;101768.91;5032828;28;20033;-65
2022/08/24 11:59:58;;;;;;;3.28;0.95;;;;;;;36.06;nan;101805.91;5032997;28;20078;-63
2022/08/24 12:02:29;;;;;;;2.40;1.05;;;;;;;35.30;nan;101811.78;5050792;28;20057;-65